Time;durP1;ratioP1;P1;durP2;ratioP2;P2;SDS_P1;SDS_P2;PMS_P1;PMS_P2;Temp;Humidity;BMP_temperature;BMP_pressure;BME280_temperature;BME280_humidity;BME280_pressure;Samples;Min_cycle;Max_cycle;Signal;HPM_P1;HPM_P2
2022/10/10 00:02:10;;;;;;;0.10;0.10;;;;;;;;;;1806485;79;26233;-53
2022/10/10 00:04:38;;;;;;;0.20;0.20;;;;;;;;;;1784585;78;26427;-51
2022/10/10 00:07:05;;;;;;;0.30;0.30;;;;;;;;;;1760450;79;26742;-50
2022/10/10 00:09:32;;;;;;;0.20;0.20;;;;;;;;;;1769637;79;26295;-49
2022/10/10 00:12:00;;;;;;;0.33;0.20;;;;;;;;;;1770300;79;26290;-48
2022/10/10 00:14:27;;;;;;;0.20;0.20;;;;;;;;;;1778042;79;26669;-49
2022/10/10 00:16:54;;;;;;;0.25;0.25;;;;;;;;;;1775357;79;26279;-51
2022/10/10 00:19:22;;;;;;;0.25;0.20;;;;;;;;;;1768702;79;26306;-49
2022/10/10 00:21:49;;;;;;;0.88;0.20;;;;;;;;;;1772150;79;26314;-51
2022/10/10 00:24:16;;;;;;;0.20;0.20;;;;;;;;;;1785239;79;26841;-50
2022/10/10 00:26:44;;;;;;;0.30;0.30;;;;;;;;;;1790752;78;26270;-51
2022/10/10 00:29:11;;;;;;;0.37;0.30;;;;;;;;;;1805593;78;26801;-51
2022/10/10 00:31:38;;;;;;;0.20;0.20;;;;;;;;;;1784363;78;26305;-50
2022/10/10 00:34:05;;;;;;;0.30;0.20;;;;;;;;;;1794708;78;26226;-52
2022/10/10 00:36:33;;;;;;;0.25;0.25;;;;;;;;;;1803892;78;26279;-51
2022/10/10 00:39:00;;;;;;;0.20;0.20;;;;;;;;;;1784902;78;26247;-51
2022/10/10 00:41:28;;;;;;;0.30;0.30;;;;;;;;;;1785617;78;26230;-50
2022/10/10 00:44:09;;;;;;;0.20;0.20;;;;;;;;;;1805774;78;26202;-52
2022/10/10 00:46:36;;;;;;;0.20;0.20;;;;;;;;;;1820552;78;26223;-51
2022/10/10 00:49:05;;;;;;;0.20;0.20;;;;;;;;;;1799750;78;26251;-49
2022/10/10 00:51:33;;;;;;;0.60;0.30;;;;;;;;;;1790805;78;26314;-51
2022/10/10 00:54:02;;;;;;;0.20;0.20;;;;;;;;;;1801404;78;26186;-51
2022/10/10 00:56:30;;;;;;;0.20;0.20;;;;;;;;;;1795750;78;26256;-50
2022/10/10 00:58:59;;;;;;;0.20;0.20;;;;;;;;;;1782410;78;26687;-51
2022/10/10 01:01:27;;;;;;;0.20;0.20;;;;;;;;;;1791261;78;27331;-52
2022/10/10 01:03:55;;;;;;;1.55;0.25;;;;;;;;;;1791632;78;26226;-53
2022/10/10 01:06:26;;;;;;;0.30;0.20;;;;;;;;;;1781593;78;26236;-53
2022/10/10 01:08:54;;;;;;;0.20;0.20;;;;;;;;;;1792927;78;26281;-53
2022/10/10 01:11:23;;;;;;;0.20;0.20;;;;;;;;;;1785493;78;26222;-51
2022/10/10 01:14:08;;;;;;;0.20;0.20;;;;;;;;;;1800285;78;26330;-52
2022/10/10 01:16:40;;;;;;;0.42;0.20;;;;;;;;;;1785597;78;26715;-51
2022/10/10 01:19:21;;;;;;;0.23;0.23;;;;;;;;;;1795826;78;26674;-52
2022/10/10 01:21:52;;;;;;;0.15;0.15;;;;;;;;;;1804218;78;26238;-51
2022/10/10 01:24:21;;;;;;;0.20;0.20;;;;;;;;;;1803569;78;27312;-50
2022/10/10 01:27:08;;;;;;;0.20;0.20;;;;;;;;;;1804596;78;26788;-49
2022/10/10 01:29:40;;;;;;;0.15;0.15;;;;;;;;;;1806910;78;26879;-50
2022/10/10 01:32:13;;;;;;;0.20;0.20;;;;;;;;;;1806743;78;26701;-52
2022/10/10 01:34:57;;;;;;;0.20;0.20;;;;;;;;;;1825715;78;26303;-52
2022/10/10 01:37:26;;;;;;;0.10;0.10;;;;;;;;;;1816284;78;26742;-49
2022/10/10 01:40:00;;;;;;;2.47;0.30;;;;;;;;;;1788844;78;26676;-53
2022/10/10 01:42:29;;;;;;;0.20;0.20;;;;;;;;;;1800131;78;26247;-52
2022/10/10 01:44:57;;;;;;;0.20;0.20;;;;;;;;;;1796263;78;26216;-51
2022/10/10 01:47:24;;;;;;;0.55;0.20;;;;;;;;;;1815845;78;27380;-50
2022/10/10 01:49:53;;;;;;;0.20;0.20;;;;;;;;;;1805112;78;26216;-52
2022/10/10 01:52:22;;;;;;;0.20;0.20;;;;;;;;;;1801304;78;26287;-52
2022/10/10 01:54:53;;;;;;;0.20;0.20;;;;;;;;;;1794895;78;26242;-50
2022/10/10 01:57:25;;;;;;;0.40;0.20;;;;;;;;;;1781309;78;26283;-51
2022/10/10 01:59:57;;;;;;;0.40;0.30;;;;;;;;;;1797460;78;26401;-53
2022/10/10 02:02:25;;;;;;;0.30;0.30;;;;;;;;;;1815188;78;26211;-51
2022/10/10 02:04:57;;;;;;;0.20;0.20;;;;;;;;;;1805961;78;26987;-51
2022/10/10 02:07:26;;;;;;;0.20;0.20;;;;;;;;;;1814240;78;26220;-53
2022/10/10 02:09:54;;;;;;;0.20;0.20;;;;;;;;;;1800443;78;26300;-52
2022/10/10 02:12:22;;;;;;;0.20;0.20;;;;;;;;;;1800246;78;26454;-50
2022/10/10 02:14:51;;;;;;;0.20;0.20;;;;;;;;;;1799642;78;26223;-50
2022/10/10 02:17:19;;;;;;;0.28;0.28;;;;;;;;;;1806463;78;26241;-51
2022/10/10 02:19:48;;;;;;;0.20;0.20;;;;;;;;;;1806743;78;26249;-50
2022/10/10 02:22:15;;;;;;;0.20;0.20;;;;;;;;;;1805878;78;26233;-52
2022/10/10 02:24:43;;;;;;;0.25;0.25;;;;;;;;;;1796591;78;27417;-50
2022/10/10 02:27:14;;;;;;;0.30;0.30;;;;;;;;;;1776395;78;26349;-52
2022/10/10 02:29:42;;;;;;;0.20;0.20;;;;;;;;;;1778524;78;26250;-51
2022/10/10 02:32:17;;;;;;;0.37;0.37;;;;;;;;;;1780667;78;26521;-52
2022/10/10 02:34:46;;;;;;;0.17;0.17;;;;;;;;;;1780012;78;27328;-49
2022/10/10 02:37:15;;;;;;;0.25;0.25;;;;;;;;;;1796747;78;26706;-51
2022/10/10 02:39:43;;;;;;;0.13;0.13;;;;;;;;;;1796283;78;26282;-50
2022/10/10 02:42:12;;;;;;;0.30;0.30;;;;;;;;;;1809461;78;26233;-48
2022/10/10 02:44:39;;;;;;;0.10;0.10;;;;;;;;;;1804900;78;26768;-51
2022/10/10 02:47:07;;;;;;;0.35;0.20;;;;;;;;;;1806775;78;26292;-49
2022/10/10 02:49:35;;;;;;;0.30;0.30;;;;;;;;;;1795965;78;26742;-51
2022/10/10 02:52:02;;;;;;;0.28;0.28;;;;;;;;;;1794345;78;26218;-53
2022/10/10 02:54:30;;;;;;;0.20;0.20;;;;;;;;;;1806850;78;26214;-50
2022/10/10 02:56:57;;;;;;;0.20;0.20;;;;;;;;;;1805870;78;26212;-53
2022/10/10 02:59:24;;;;;;;0.20;0.20;;;;;;;;;;1789177;78;26274;-52
2022/10/10 03:01:51;;;;;;;0.20;0.20;;;;;;;;;;1785729;78;26710;-50
2022/10/10 03:04:19;;;;;;;0.20;0.20;;;;;;;;;;1783708;78;27424;-52
2022/10/10 03:06:46;;;;;;;0.30;0.30;;;;;;;;;;1788321;78;26219;-50
2022/10/10 03:09:14;;;;;;;0.75;0.20;;;;;;;;;;1791093;78;26883;-51
2022/10/10 03:11:41;;;;;;;0.20;0.20;;;;;;;;;;1790952;78;26242;-51
2022/10/10 03:14:08;;;;;;;0.30;0.30;;;;;;;;;;1779302;78;27389;-51
2022/10/10 03:16:36;;;;;;;0.33;0.33;;;;;;;;;;1788891;78;26254;-51
2022/10/10 03:19:03;;;;;;;0.80;0.30;;;;;;;;;;1801136;78;26304;-52
2022/10/10 03:21:30;;;;;;;0.20;0.20;;;;;;;;;;1789656;78;26720;-52
2022/10/10 03:23:57;;;;;;;1.05;0.45;;;;;;;;;;1790681;78;26658;-52
2022/10/10 03:26:25;;;;;;;0.25;0.20;;;;;;;;;;1794505;78;26301;-52
2022/10/10 03:28:52;;;;;;;0.20;0.20;;;;;;;;;;1812652;78;26317;-52
2022/10/10 03:31:19;;;;;;;0.20;0.20;;;;;;;;;;1809981;78;26229;-51
2022/10/10 03:33:47;;;;;;;0.20;0.20;;;;;;;;;;1799304;78;26223;-49
2022/10/10 03:36:14;;;;;;;0.20;0.20;;;;;;;;;;1801964;78;26263;-51
2022/10/10 03:38:41;;;;;;;0.20;0.20;;;;;;;;;;1785770;78;26227;-49
2022/10/10 03:41:09;;;;;;;0.10;0.10;;;;;;;;;;1799434;78;26213;-51
2022/10/10 03:43:36;;;;;;;0.20;0.20;;;;;;;;;;1801955;78;26287;-48
2022/10/10 03:46:03;;;;;;;0.47;0.13;;;;;;;;;;1804076;78;26262;-51
2022/10/10 03:48:32;;;;;;;0.33;0.33;;;;;;;;;;1801018;78;26721;-51
2022/10/10 03:50:59;;;;;;;0.20;0.20;;;;;;;;;;1794752;78;26229;-49
2022/10/10 03:53:27;;;;;;;0.20;0.20;;;;;;;;;;1802928;78;26225;-52
2022/10/10 03:55:54;;;;;;;0.20;0.20;;;;;;;;;;1799869;78;26217;-49
2022/10/10 03:58:21;;;;;;;0.45;0.10;;;;;;;;;;1786319;78;27017;-50
2022/10/10 04:00:55;;;;;;;0.30;0.30;;;;;;;;;;1797187;78;27172;-50
2022/10/10 04:03:22;;;;;;;0.10;0.10;;;;;;;;;;1778806;78;26282;-51
2022/10/10 04:05:51;;;;;;;0.40;0.40;;;;;;;;;;1783291;78;26704;-51
2022/10/10 04:08:19;;;;;;;1.00;0.30;;;;;;;;;;1780577;78;26277;-49
2022/10/10 04:10:49;;;;;;;0.20;0.20;;;;;;;;;;1798688;78;27360;-50
2022/10/10 04:13:17;;;;;;;0.15;0.15;;;;;;;;;;1794550;78;27186;-48
2022/10/10 04:15:44;;;;;;;0.20;0.20;;;;;;;;;;1801485;78;26291;-53
2022/10/10 04:18:11;;;;;;;0.15;0.15;;;;;;;;;;1799245;78;26265;-49
2022/10/10 04:20:39;;;;;;;0.20;0.20;;;;;;;;;;1785026;78;26223;-51
2022/10/10 04:23:06;;;;;;;0.20;0.20;;;;;;;;;;1788920;78;27545;-52
2022/10/10 04:25:36;;;;;;;0.13;0.13;;;;;;;;;;1802093;78;26311;-48
2022/10/10 04:28:03;;;;;;;0.10;0.10;;;;;;;;;;1781148;78;27496;-49
2022/10/10 04:30:36;;;;;;;0.17;0.17;;;;;;;;;;1771861;79;26791;-52
2022/10/10 04:33:01;;;;;;;0.10;0.10;;;;;;;;;;1762439;79;26405;-51
2022/10/10 04:35:30;;;;;;;0.20;0.20;;;;;;;;;;1766639;79;26274;-48
2022/10/10 04:37:57;;;;;;;0.10;0.10;;;;;;;;;;1771065;79;27272;-51
2022/10/10 04:40:24;;;;;;;0.20;0.20;;;;;;;;;;1724054;81;26787;-53
2022/10/10 04:42:56;;;;;;;0.93;0.28;;;;;;;;;;1741268;81;26829;-49
2022/10/10 04:45:20;;;;;;;0.40;0.40;;;;;;;;;;1744072;80;27135;-49
2022/10/10 04:47:48;;;;;;;1.60;0.40;;;;;;;;;;1778572;78;26358;-50
2022/10/10 04:50:15;;;;;;;0.47;0.47;;;;;;;;;;1780953;78;26368;-48
2022/10/10 04:52:42;;;;;;;0.30;0.30;;;;;;;;;;1788341;78;26324;-48
2022/10/10 04:55:09;;;;;;;0.20;0.20;;;;;;;;;;1781995;78;26290;-51
2022/10/10 04:57:37;;;;;;;0.40;0.40;;;;;;;;;;1792679;78;26245;-48
2022/10/10 05:00:10;;;;;;;0.20;0.20;;;;;;;;;;1804472;78;26431;-48
2022/10/10 05:02:34;;;;;;;0.33;0.30;;;;;;;;;;1778641;78;26357;-49
2022/10/10 05:05:02;;;;;;;0.30;0.30;;;;;;;;;;1786370;78;26763;-49
2022/10/10 05:07:32;;;;;;;0.35;0.35;;;;;;;;;;1795353;78;26302;-51
2022/10/10 05:10:01;;;;;;;1.50;0.40;;;;;;;;;;1791469;78;26301;-50
2022/10/10 05:12:28;;;;;;;2.83;0.35;;;;;;;;;;1792487;78;26372;-49
2022/10/10 05:14:55;;;;;;;0.60;0.30;;;;;;;;;;1807293;78;26400;-52
2022/10/10 05:17:25;;;;;;;0.40;0.40;;;;;;;;;;1800444;78;26320;-52
2022/10/10 05:19:53;;;;;;;1.20;0.30;;;;;;;;;;1808360;78;26340;-50
2022/10/10 05:22:20;;;;;;;0.40;0.30;;;;;;;;;;1793182;78;26302;-52
2022/10/10 05:24:47;;;;;;;0.30;0.30;;;;;;;;;;1793932;78;26738;-52
2022/10/10 05:27:14;;;;;;;1.50;0.23;;;;;;;;;;1792964;78;26299;-52
2022/10/10 05:29:42;;;;;;;0.80;0.42;;;;;;;;;;1816962;77;26400;-52
2022/10/10 05:32:10;;;;;;;1.02;0.40;;;;;;;;;;1818232;77;26805;-50
2022/10/10 05:34:37;;;;;;;0.78;0.30;;;;;;;;;;1809057;77;26311;-50
2022/10/10 05:37:06;;;;;;;0.40;0.40;;;;;;;;;;1804209;77;26308;-50
2022/10/10 05:39:34;;;;;;;0.78;0.47;;;;;;;;;;1834329;77;27509;-49
2022/10/10 05:42:01;;;;;;;0.82;0.57;;;;;;;;;;1818915;77;26831;-51
2022/10/10 05:44:28;;;;;;;1.35;0.37;;;;;;;;;;1834925;77;26808;-52
2022/10/10 05:46:56;;;;;;;0.78;0.30;;;;;;;;;;1820082;77;26780;-51
2022/10/10 05:49:23;;;;;;;0.80;0.37;;;;;;;;;;1813144;77;26864;-51
2022/10/10 05:51:51;;;;;;;2.10;0.40;;;;;;;;;;1811277;77;26830;-50
2022/10/10 05:54:18;;;;;;;2.10;0.30;;;;;;;;;;1820915;77;27216;-50
2022/10/10 05:56:45;;;;;;;0.30;0.30;;;;;;;;;;1827323;77;26747;-51
2022/10/10 05:59:12;;;;;;;0.93;0.30;;;;;;;;;;1819166;77;26358;-51
2022/10/10 06:01:40;;;;;;;0.65;0.30;;;;;;;;;;1828143;77;26347;-52
2022/10/10 06:04:11;;;;;;;0.35;0.35;;;;;;;;;;1810315;77;26281;-53
2022/10/10 06:06:53;;;;;;;2.37;0.37;;;;;;;;;;1813475;77;26398;-53
2022/10/10 06:09:09;;;;;;;2.15;0.30;;;;;;;;;;1816117;77;26410;-52
2022/10/10 06:11:36;;;;;;;1.35;0.30;;;;;;;;;;1820424;77;26699;-51
2022/10/10 06:14:04;;;;;;;2.58;0.42;;;;;;;;;;1807541;77;26304;-51
2022/10/10 06:16:31;;;;;;;0.37;0.37;;;;;;;;;;1816008;77;26387;-50
2022/10/10 06:18:58;;;;;;;1.80;0.30;;;;;;;;;;1815418;77;26827;-51
2022/10/10 06:21:26;;;;;;;0.37;0.30;;;;;;;;;;1820145;77;26300;-49
2022/10/10 06:23:53;;;;;;;0.40;0.40;;;;;;;;;;1816303;77;26303;-52
2022/10/10 06:26:20;;;;;;;1.10;0.70;;;;;;;;;;1815288;77;26386;-50
2022/10/10 06:28:49;;;;;;;0.50;0.30;;;;;;;;;;1819284;77;26642;-52
2022/10/10 06:31:17;;;;;;;3.33;0.53;;;;;;;;;;1806275;77;26775;-51
2022/10/10 06:33:44;;;;;;;0.50;0.50;;;;;;;;;;1812599;77;26391;-51
2022/10/10 06:36:13;;;;;;;0.30;0.30;;;;;;;;;;1822050;77;26297;-51
2022/10/10 06:38:42;;;;;;;1.27;0.47;;;;;;;;;;1808546;77;26317;-50
2022/10/10 06:41:10;;;;;;;0.53;0.53;;;;;;;;;;1815685;77;26373;-49
2022/10/10 06:43:40;;;;;;;0.45;0.40;;;;;;;;;;1819374;77;26741;-48
2022/10/10 06:46:09;;;;;;;0.62;0.45;;;;;;;;;;1821325;77;26383;-51
2022/10/10 06:48:36;;;;;;;0.40;0.40;;;;;;;;;;1815845;77;26323;-53
2022/10/10 06:51:05;;;;;;;0.30;0.30;;;;;;;;;;1810204;77;26312;-51
2022/10/10 06:53:32;;;;;;;1.20;0.60;;;;;;;;;;1816302;77;26367;-51
2022/10/10 06:56:02;;;;;;;0.47;0.47;;;;;;;;;;1817683;77;26295;-49
2022/10/10 06:58:29;;;;;;;0.60;0.40;;;;;;;;;;1816062;77;26336;-52
2022/10/10 07:00:58;;;;;;;0.50;0.50;;;;;;;;;;1819020;77;26826;-53
2022/10/10 07:03:29;;;;;;;0.40;0.40;;;;;;;;;;1812944;77;26277;-51
2022/10/10 07:05:58;;;;;;;2.85;0.30;;;;;;;;;;1820943;77;26304;-51
2022/10/10 07:08:28;;;;;;;1.35;0.40;;;;;;;;;;1818005;77;26325;-52
2022/10/10 07:10:55;;;;;;;0.57;0.57;;;;;;;;;;1814996;77;26780;-51
2022/10/10 07:13:27;;;;;;;0.50;0.50;;;;;;;;;;1823657;77;26394;-51
2022/10/10 07:16:04;;;;;;;3.35;0.60;;;;;;;;;;1806415;77;30360;-52
2022/10/10 07:18:21;;;;;;;0.42;0.42;;;;;;;;;;1798760;77;26256;-53
2022/10/10 07:20:48;;;;;;;1.12;0.50;;;;;;;;;;1813186;77;26278;-50
2022/10/10 07:23:17;;;;;;;1.47;0.50;;;;;;;;;;1817594;78;26347;-52
2022/10/10 07:25:44;;;;;;;0.37;0.37;;;;;;;;;;1807686;77;26289;-47
2022/10/10 07:28:12;;;;;;;0.50;0.50;;;;;;;;;;1807421;77;26871;-50
2022/10/10 07:30:43;;;;;;;0.50;0.50;;;;;;;;;;1780414;78;26321;-50
2022/10/10 07:33:11;;;;;;;0.55;0.40;;;;;;;;;;1762633;79;26301;-51
2022/10/10 07:35:38;;;;;;;1.75;0.60;;;;;;;;;;1761242;79;26279;-52
2022/10/10 07:38:06;;;;;;;0.47;0.47;;;;;;;;;;1768070;79;27580;-51
2022/10/10 07:40:36;;;;;;;1.42;0.47;;;;;;;;;;1773647;79;26341;-52
2022/10/10 07:43:05;;;;;;;2.15;0.98;;;;;;;;;;1780333;79;26295;-51
2022/10/10 07:45:34;;;;;;;1.52;0.62;;;;;;;;;;1774654;79;26786;-50
2022/10/10 07:48:03;;;;;;;0.95;0.50;;;;;;;;;;1769303;79;26806;-53
2022/10/10 07:50:31;;;;;;;0.60;0.60;;;;;;;;;;1761163;79;26478;-52
2022/10/10 07:53:01;;;;;;;2.27;0.50;;;;;;;;;;1765811;79;26557;-48
2022/10/10 07:55:28;;;;;;;0.70;0.50;;;;;;;;;;1759674;79;26407;-50
2022/10/10 07:57:58;;;;;;;0.65;0.50;;;;;;;;;;1762939;78;27443;-51
2022/10/10 08:00:27;;;;;;;0.72;0.55;;;;;;;;;;1772650;79;26342;-52
2022/10/10 08:02:55;;;;;;;3.40;0.60;;;;;;;;;;1774227;79;26574;-53
2022/10/10 08:05:25;;;;;;;3.72;0.60;;;;;;;;;;1772412;79;27402;-55
2022/10/10 08:07:55;;;;;;;0.50;0.50;;;;;;;;;;1776647;79;26286;-55
2022/10/10 08:10:23;;;;;;;0.53;0.53;;;;;;;;;;1772183;79;26295;-54
2022/10/10 08:12:54;;;;;;;1.10;0.50;;;;;;;;;;1774016;79;26890;-54
2022/10/10 08:15:32;;;;;;;0.60;0.60;;;;;;;;;;1758224;79;29631;-54
2022/10/10 08:17:48;;;;;;;0.50;0.50;;;;;;;;;;1774333;79;26400;-55
2022/10/10 08:20:15;;;;;;;0.98;0.40;;;;;;;;;;1773285;79;26290;-56
2022/10/10 08:22:42;;;;;;;0.35;0.35;;;;;;;;;;1780168;79;26285;-54
2022/10/10 08:25:10;;;;;;;0.50;0.50;;;;;;;;;;1776172;79;26364;-50
2022/10/10 08:27:37;;;;;;;0.40;0.40;;;;;;;;;;1779435;79;26291;-53
2022/10/10 08:30:06;;;;;;;0.50;0.42;;;;;;;;;;1783771;79;26855;-51
2022/10/10 08:32:33;;;;;;;0.42;0.42;;;;;;;;;;1767166;79;26893;-52
2022/10/10 08:35:02;;;;;;;1.00;0.40;;;;;;;;;;1780428;79;26243;-52
2022/10/10 08:37:29;;;;;;;0.40;0.40;;;;;;;;;;1773453;79;26381;-53
2022/10/10 08:40:27;;;;;;;0.53;0.53;;;;;;;;;;1768757;78;26997;-52
2022/10/10 08:42:58;;;;;;;0.40;0.40;;;;;;;;;;1771259;78;26734;-50
2022/10/10 08:45:28;;;;;;;0.47;0.30;;;;;;;;;;1772049;79;26752;-50
2022/10/10 08:48:06;;;;;;;0.53;0.40;;;;;;;;;;1769708;79;26282;-52
2022/10/10 08:50:36;;;;;;;0.50;0.50;;;;;;;;;;1770709;79;26407;-48
2022/10/10 08:53:05;;;;;;;0.85;0.40;;;;;;;;;;1777571;79;28827;-53
2022/10/10 08:55:34;;;;;;;0.40;0.40;;;;;;;;;;1776467;79;26293;-52
2022/10/10 08:58:08;;;;;;;0.50;0.50;;;;;;;;;;1781652;79;26281;-50
2022/10/10 09:00:40;;;;;;;0.40;0.30;;;;;;;;;;1776919;79;26275;-44
2022/10/10 09:03:26;;;;;;;1.30;0.40;;;;;;;;;;1783919;79;26283;-55
2022/10/10 09:06:11;;;;;;;1.85;0.40;;;;;;;;;;1781617;79;26387;-54
2022/10/10 09:08:52;;;;;;;15.85;2.25;;;;;;;;;;1784804;79;26358;-48
2022/10/10 09:11:27;;;;;;;0.33;0.33;;;;;;;;;;1786106;79;26306;-53
2022/10/10 09:13:59;;;;;;;1.45;0.40;;;;;;;;;;1778394;79;26700;-51
2022/10/10 09:16:45;;;;;;;0.30;0.30;;;;;;;;;;1773449;79;26279;-48
2022/10/10 09:19:30;;;;;;;1.35;0.40;;;;;;;;;;1763213;79;26789;-51
2022/10/10 09:22:13;;;;;;;0.35;0.35;;;;;;;;;;1781010;79;26365;-51
2022/10/10 09:25:03;;;;;;;0.78;0.50;;;;;;;;;;1767786;79;26285;-45
2022/10/10 09:27:33;;;;;;;0.62;0.35;;;;;;;;;;1753368;79;26633;-52
2022/10/10 09:30:02;;;;;;;1.15;0.40;;;;;;;;;;1774415;79;26708;-54
2022/10/10 09:32:31;;;;;;;0.40;0.40;;;;;;;;;;1807150;77;26329;-52
2022/10/10 09:35:04;;;;;;;0.40;0.30;;;;;;;;;;1790792;78;26296;-50
2022/10/10 09:37:36;;;;;;;0.20;0.20;;;;;;;;;;1787995;78;26370;-53
2022/10/10 09:40:04;;;;;;;0.40;0.40;;;;;;;;;;1792546;78;26360;-53
2022/10/10 09:42:33;;;;;;;0.30;0.30;;;;;;;;;;1805267;78;26412;-53
2022/10/10 09:45:01;;;;;;;0.30;0.30;;;;;;;;;;1804879;77;26336;-53
2022/10/10 09:47:28;;;;;;;0.25;0.25;;;;;;;;;;1797560;78;26290;-48
2022/10/10 09:49:56;;;;;;;0.33;0.33;;;;;;;;;;1791849;78;26421;-53
2022/10/10 09:52:25;;;;;;;0.45;0.45;;;;;;;;;;1791184;78;26286;-57
2022/10/10 09:55:03;;;;;;;0.30;0.30;;;;;;;;;;1791194;78;26265;-57
2022/10/10 09:57:24;;;;;;;0.30;0.30;;;;;;;;;;1786593;78;26302;-53
2022/10/10 09:59:53;;;;;;;0.30;0.30;;;;;;;;;;1797242;78;27800;-53
2022/10/10 10:02:22;;;;;;;0.35;0.35;;;;;;;;;;1785354;78;26298;-52
2022/10/10 10:04:51;;;;;;;0.45;0.40;;;;;;;;;;1793811;78;26676;-57
2022/10/10 10:07:43;;;;;;;1.35;0.40;;;;;;;;;;1793290;78;26290;-54
2022/10/10 10:10:22;;;;;;;0.28;0.28;;;;;;;;;;1787775;78;26360;-51
2022/10/10 10:12:51;;;;;;;0.30;0.30;;;;;;;;;;1793474;78;26302;-51
2022/10/10 10:15:28;;;;;;;0.62;0.42;;;;;;;;;;1787410;78;26888;-54
2022/10/10 10:18:14;;;;;;;0.35;0.30;;;;;;;;;;1786927;78;26321;-48
2022/10/10 10:20:42;;;;;;;0.40;0.40;;;;;;;;;;1791797;78;26416;-50
2022/10/10 10:23:27;;;;;;;0.10;0.10;;;;;;;;;;1796953;78;26278;-51
2022/10/10 10:26:05;;;;;;;0.30;0.30;;;;;;;;;;1791468;78;26320;-48
2022/10/10 10:28:42;;;;;;;0.30;0.30;;;;;;;;;;1789498;78;26356;-52
2022/10/10 10:31:23;;;;;;;0.33;0.30;;;;;;;;;;1794824;78;27144;-52
2022/10/10 10:34:04;;;;;;;2.00;0.40;;;;;;;;;;1793318;78;26273;-55
2022/10/10 10:36:39;;;;;;;0.68;0.40;;;;;;;;;;1787667;78;26357;-52
2022/10/10 10:39:10;;;;;;;1.30;0.40;;;;;;;;;;1770267;78;28707;-52
2022/10/10 10:41:43;;;;;;;1.55;0.33;;;;;;;;;;1784441;78;26363;-54
2022/10/10 10:44:15;;;;;;;2.27;0.47;;;;;;;;;;1787038;78;26368;-53
2022/10/10 10:46:53;;;;;;;0.40;0.40;;;;;;;;;;1788217;78;26808;-51
2022/10/10 10:52:51;;;;;;;0.30;0.30;;;;;;;;;;1709791;82;26453;-53
2022/10/10 10:56:31;;;;;;;0.23;0.23;;;;;;;;;;1714666;78;26333;-52
2022/10/10 10:58:28;;;;;;;0.40;0.40;;;;;;;;;;1705635;82;26450;-57
2022/10/10 11:01:10;;;;;;;0.30;0.30;;;;;;;;;;1639973;87;26344;-53
2022/10/10 11:03:41;;;;;;;0.85;0.37;;;;;;;;;;1636871;87;26486;-50
2022/10/10 11:06:28;;;;;;;3.15;0.40;;;;;;;;;;1649400;82;26360;-51
2022/10/10 11:08:59;;;;;;;0.30;0.30;;;;;;;;;;1720214;79;26754;-49
2022/10/10 11:11:43;;;;;;;0.23;0.17;;;;;;;;;;1792456;78;26311;-57
2022/10/10 11:14:24;;;;;;;0.53;0.40;;;;;;;;;;1798289;77;26356;-52
2022/10/10 11:17:02;;;;;;;0.25;0.23;;;;;;;;;;1792772;78;26278;-49
2022/10/10 11:19:31;;;;;;;0.40;0.40;;;;;;;;;;1784844;78;26345;-50
2022/10/10 11:21:59;;;;;;;0.33;0.33;;;;;;;;;;1783828;78;26298;-54
2022/10/10 11:24:47;;;;;;;0.40;0.40;;;;;;;;;;1791276;78;26202;-52
2022/10/10 11:27:15;;;;;;;1.98;0.50;;;;;;;;;;1787300;78;26390;-51
2022/10/10 11:30:10;;;;;;;1.87;0.33;;;;;;;;;;1796217;78;26301;-52
2022/10/10 11:32:29;;;;;;;0.33;0.33;;;;;;;;;;1786277;77;26366;-48
2022/10/10 11:35:07;;;;;;;0.30;0.30;;;;;;;;;;1824608;77;26286;-52
2022/10/10 11:37:36;;;;;;;1.20;0.40;;;;;;;;;;1814222;77;26308;-55
2022/10/10 11:40:05;;;;;;;0.30;0.30;;;;;;;;;;1828876;77;26343;-57
2022/10/10 11:42:51;;;;;;;0.40;0.40;;;;;;;;;;1821714;77;26260;-54
2022/10/10 11:45:29;;;;;;;0.30;0.30;;;;;;;;;;1726686;81;26410;-56
2022/10/10 11:48:18;;;;;;;0.50;0.50;;;;;;;;;;1699298;81;26339;-57
2022/10/10 11:50:53;;;;;;;0.40;0.40;;;;;;;;;;1704340;81;26358;-57
2022/10/10 11:56:35;;;;;;;0.40;0.40;;;;;;;;;;1721916;81;26324;-53
2022/10/10 11:59:08;;;;;;;1.12;0.60;;;;;;;;;;1725863;81;26812;-55
2022/10/10 12:01:37;;;;;;;1.02;0.40;;;;;;;;;;1730479;80;26343;-51
2022/10/10 12:04:04;;;;;;;0.50;0.50;;;;;;;;;;1720581;81;26389;-54
2022/10/10 12:06:39;;;;;;;0.35;0.35;;;;;;;;;;1729074;82;26835;-53
2022/10/10 12:09:18;;;;;;;1.25;0.37;;;;;;;;;;1802985;77;26662;-53
2022/10/10 12:11:49;;;;;;;1.85;0.40;;;;;;;;;;1813795;77;26469;-53
2022/10/10 12:14:22;;;;;;;1.27;0.37;;;;;;;;;;1831092;77;26327;-52
2022/10/10 12:16:47;;;;;;;0.30;0.30;;;;;;;;;;1809843;77;26253;-55
2022/10/10 12:19:19;;;;;;;5.78;0.50;;;;;;;;;;1823729;77;26760;-51
2022/10/10 12:22:10;;;;;;;0.40;0.40;;;;;;;;;;1825331;77;26796;-49
2022/10/10 12:24:43;;;;;;;0.40;0.40;;;;;;;;;;1824568;77;26293;-49
2022/10/10 12:27:16;;;;;;;0.40;0.40;;;;;;;;;;1811086;77;26893;-50
2022/10/10 12:30:00;;;;;;;1.17;0.30;;;;;;;;;;1803835;77;26312;-55
2022/10/10 12:32:30;;;;;;;0.50;0.50;;;;;;;;;;1811904;77;26322;-53
2022/10/10 12:35:00;;;;;;;0.50;0.50;;;;;;;;;;1785610;78;26467;-53
2022/10/10 12:37:32;;;;;;;2.17;0.40;;;;;;;;;;1788341;78;26348;-49
2022/10/10 12:40:20;;;;;;;0.40;0.40;;;;;;;;;;1794611;78;26339;-57
2022/10/10 12:42:41;;;;;;;0.50;0.50;;;;;;;;;;1807955;78;26276;-56
2022/10/10 12:45:34;;;;;;;0.50;0.50;;;;;;;;;;1776385;78;26344;-55
2022/10/10 12:47:59;;;;;;;0.40;0.40;;;;;;;;;;1792317;78;26303;-57
2022/10/10 12:50:45;;;;;;;0.40;0.40;;;;;;;;;;1790955;78;26383;-55
2022/10/10 12:53:26;;;;;;;0.40;0.40;;;;;;;;;;1783492;78;26395;-49
2022/10/10 12:55:46;;;;;;;0.40;0.40;;;;;;;;;;1779066;77;26761;-50
2022/10/10 12:58:15;;;;;;;0.40;0.40;;;;;;;;;;1789375;78;26352;-53
2022/10/10 13:00:47;;;;;;;0.40;0.40;;;;;;;;;;1789249;78;26316;-51
2022/10/10 13:03:22;;;;;;;0.40;0.40;;;;;;;;;;1783031;78;26371;-52
2022/10/10 13:05:52;;;;;;;0.50;0.50;;;;;;;;;;1780000;78;26265;-54
2022/10/10 13:08:24;;;;;;;0.40;0.40;;;;;;;;;;1776706;78;26316;-56
2022/10/10 13:11:15;;;;;;;2.22;0.45;;;;;;;;;;1779858;78;26310;-53
2022/10/10 13:13:33;;;;;;;0.60;0.60;;;;;;;;;;1743668;78;27173;-50
2022/10/10 13:16:28;;;;;;;0.50;0.50;;;;;;;;;;1800235;79;26348;-51
2022/10/10 13:18:57;;;;;;;0.72;0.50;;;;;;;;;;1799216;78;26336;-52
2022/10/10 13:21:26;;;;;;;0.50;0.50;;;;;;;;;;1799419;79;26841;-51
2022/10/10 13:23:58;;;;;;;0.50;0.50;;;;;;;;;;1797677;78;27451;-50
2022/10/10 13:26:30;;;;;;;0.50;0.50;;;;;;;;;;1804273;78;26324;-52
2022/10/10 13:29:00;;;;;;;0.85;0.45;;;;;;;;;;1800510;78;26321;-58
2022/10/10 13:31:31;;;;;;;0.40;0.40;;;;;;;;;;1783675;78;26663;-52
2022/10/10 13:34:03;;;;;;;0.50;0.50;;;;;;;;;;1785471;78;26380;-56
2022/10/10 13:36:34;;;;;;;2.20;0.55;;;;;;;;;;1788435;78;26721;-56
2022/10/10 13:39:08;;;;;;;0.25;0.25;;;;;;;;;;1775493;78;26398;-55
2022/10/10 13:41:32;;;;;;;0.50;0.50;;;;;;;;;;1791103;78;26823;-55
2022/10/10 13:44:01;;;;;;;0.40;0.40;;;;;;;;;;1798017;78;26286;-56
2022/10/10 13:46:29;;;;;;;0.57;0.57;;;;;;;;;;1788440;78;26293;-52
2022/10/10 13:49:11;;;;;;;0.40;0.40;;;;;;;;;;1789283;78;26370;-48
2022/10/10 13:51:42;;;;;;;0.50;0.50;;;;;;;;;;1783066;78;26404;-50
2022/10/10 13:54:28;;;;;;;0.57;0.57;;;;;;;;;;1794355;78;26281;-50
2022/10/10 13:56:56;;;;;;;0.50;0.50;;;;;;;;;;1784700;78;26350;-57
2022/10/10 13:59:24;;;;;;;0.40;0.40;;;;;;;;;;1791264;78;26298;-54
2022/10/10 14:01:56;;;;;;;0.65;0.55;;;;;;;;;;1779302;78;26789;-50
2022/10/10 14:04:42;;;;;;;0.70;0.70;;;;;;;;;;1759771;78;26297;-53
2022/10/10 14:07:16;;;;;;;0.60;0.60;;;;;;;;;;1736370;80;26435;-51
2022/10/10 14:09:56;;;;;;;0.60;0.50;;;;;;;;;;1774151;78;26407;-52
2022/10/10 14:12:44;;;;;;;1.15;1.07;;;;;;;;;;1795738;78;26267;-50
2022/10/10 14:15:00;;;;;;;0.50;0.50;;;;;;;;;;1793586;77;26341;-48
2022/10/10 14:19:57;;;;;;;0.65;0.65;;;;;;;;;;1771738;78;26298;-52
2022/10/10 14:22:34;;;;;;;0.85;0.70;;;;;;;;;;1786357;78;26376;-57
2022/10/10 14:25:03;;;;;;;0.42;0.42;;;;;;;;;;1794845;78;26465;-52
2022/10/10 14:27:36;;;;;;;0.40;0.40;;;;;;;;;;1787092;78;26330;-51
2022/10/10 14:30:07;;;;;;;1.82;0.50;;;;;;;;;;1803511;78;26318;-47
2022/10/10 14:32:44;;;;;;;1.10;0.60;;;;;;;;;;1792710;78;26310;-48
2022/10/10 14:35:12;;;;;;;0.50;0.50;;;;;;;;;;1776217;79;26391;-52
2022/10/10 14:37:41;;;;;;;0.82;0.70;;;;;;;;;;1774484;78;26380;-57
2022/10/10 14:40:25;;;;;;;1.15;0.60;;;;;;;;;;1781216;79;26880;-49
2022/10/10 14:42:57;;;;;;;0.53;0.53;;;;;;;;;;1809723;79;26295;-53
2022/10/10 14:45:28;;;;;;;0.60;0.60;;;;;;;;;;1784888;79;26542;-54
2022/10/10 14:48:04;;;;;;;0.75;0.57;;;;;;;;;;1773086;79;26314;-49
2022/10/10 14:50:34;;;;;;;0.70;0.70;;;;;;;;;;1764299;79;26321;-51
2022/10/10 14:53:12;;;;;;;0.50;0.50;;;;;;;;;;1782106;78;26690;-55
2022/10/10 14:55:50;;;;;;;0.75;0.70;;;;;;;;;;1791321;79;27419;-58
2022/10/10 14:58:27;;;;;;;0.60;0.60;;;;;;;;;;1770948;78;26283;-57
2022/10/10 15:01:01;;;;;;;1.05;0.57;;;;;;;;;;1770394;79;26786;-53
2022/10/10 15:03:56;;;;;;;0.60;0.60;;;;;;;;;;1785835;78;26362;-49
2022/10/10 15:09:14;;;;;;;0.70;0.70;;;;;;;;;;1712684;83;26327;-59
2022/10/10 15:11:45;;;;;;;0.80;0.80;;;;;;;;;;1701382;83;26551;-60
2022/10/10 15:14:15;;;;;;;0.60;0.60;;;;;;;;;;1698465;82;26624;-54
2022/10/10 15:16:54;;;;;;;0.60;0.60;;;;;;;;;;1698635;83;27291;-54
2022/10/10 15:20:05;;;;;;;0.95;0.70;;;;;;;;;;1697349;82;26392;-52